Time;durP1;ratioP1;P1;durP2;ratioP2;P2;SDS_P1;SDS_P2;PMS_P1;PMS_P2;Temp;Humidity;BMP_temperature;BMP_pressure;BME280_temperature;BME280_humidity;BME280_pressure;Samples;Min_cycle;Max_cycle;Signal;HPM_P1;HPM_P2
2020/12/01 00:00:12;;;;;;;32.90;22.17;;;1.00;99.90;;;;;;5110407;28;20476;-70
2020/12/01 00:02:39;;;;;;;30.47;20.90;;;1.00;99.90;;;;;;5111104;28;20516;-71
2020/12/01 00:05:05;;;;;;;31.80;22.20;;;1.00;99.90;;;;;;5110949;28;20508;-70
2020/12/01 00:07:32;;;;;;;37.87;24.17;;;1.10;99.90;;;;;;5111247;28;20473;-70
2020/12/01 00:09:58;;;;;;;31.60;20.93;;;1.10;99.90;;;;;;5110227;28;20480;-70
2020/12/01 00:12:24;;;;;;;33.73;21.23;;;1.10;99.90;;;;;;5110789;28;21007;-70
2020/12/01 00:14:51;;;;;;;34.50;22.60;;;1.10;99.90;;;;;;5111075;28;20871;-70
2020/12/01 00:17:18;;;;;;;35.47;23.33;;;1.10;99.90;;;;;;5111065;28;20476;-71
2020/12/01 00:19:44;;;;;;;41.73;28.03;;;1.00;99.90;;;;;;5110783;28;20911;-71
2020/12/01 00:22:12;;;;;;;35.47;25.07;;;1.00;99.90;;;;;;5110362;28;20682;-71
2020/12/01 00:24:38;;;;;;;41.60;29.30;;;1.10;99.90;;;;;;5111088;28;20441;-71
2020/12/01 00:27:05;;;;;;;41.03;23.30;;;1.10;99.90;;;;;;5111191;28;20891;-71
2020/12/01 00:29:31;;;;;;;31.73;20.70;;;1.10;99.90;;;;;;5114849;28;20469;-71
2020/12/01 00:31:58;;;;;;;32.33;22.47;;;1.20;99.90;;;;;;5113843;28;20537;-71
2020/12/01 00:34:25;;;;;;;36.10;22.90;;;1.20;99.90;;;;;;5114446;28;20541;-71
2020/12/01 00:36:51;;;;;;;36.17;22.83;;;1.20;99.90;;;;;;5114775;28;20540;-72
2020/12/01 00:39:18;;;;;;;37.63;24.30;;;1.20;99.90;;;;;;5114478;28;20476;-72
2020/12/01 00:41:44;;;;;;;40.77;25.10;;;1.20;99.90;;;;;;5113595;27;20572;-72
2020/12/01 00:44:10;;;;;;;34.27;23.50;;;1.20;99.90;;;;;;5114256;27;20529;-72
2020/12/01 00:46:37;;;;;;;39.70;23.33;;;1.20;99.90;;;;;;5114330;28;20544;-73
2020/12/01 00:49:03;;;;;;;41.70;25.70;;;1.20;99.90;;;;;;5114168;28;20544;-72
2020/12/01 00:51:30;;;;;;;35.13;24.07;;;1.30;99.90;;;;;;5113549;27;20507;-72
2020/12/01 00:53:57;;;;;;;39.73;23.10;;;1.30;99.90;;;;;;5114214;28;20525;-72
2020/12/01 00:56:23;;;;;;;39.80;24.70;;;1.30;99.90;;;;;;5114083;28;20524;-72
2020/12/01 00:58:50;;;;;;;33.47;22.80;;;1.30;99.90;;;;;;5114056;28;20465;-71
2020/12/01 01:01:17;;;;;;;40.90;24.30;;;1.30;99.90;;;;;;5113215;28;20556;-71
2020/12/01 01:03:43;;;;;;;39.97;25.63;;;1.30;99.90;;;;;;5113876;28;20528;-71
2020/12/01 01:06:10;;;;;;;38.63;24.27;;;1.30;99.90;;;;;;5114038;28;20528;-71
2020/12/01 01:08:38;;;;;;;44.60;25.97;;;1.40;99.90;;;;;;5114007;28;20471;-70
2020/12/01 01:11:05;;;;;;;42.30;25.80;;;1.40;99.90;;;;;;5113071;28;20499;-70
2020/12/01 01:13:31;;;;;;;36.73;22.90;;;1.40;99.90;;;;;;5113762;27;20520;-70
2020/12/01 01:15:59;;;;;;;37.50;23.53;;;1.40;99.90;;;;;;5113653;28;20528;-69
2020/12/01 01:18:25;;;;;;;34.37;23.13;;;1.40;99.90;;;;;;5113706;28;20520;-70
2020/12/01 01:20:52;;;;;;;40.50;24.53;;;1.40;99.90;;;;;;5112962;28;20540;-70
2020/12/01 01:23:18;;;;;;;42.73;23.40;;;1.40;99.90;;;;;;5113651;28;20567;-70
2020/12/01 01:25:46;;;;;;;38.60;23.50;;;1.40;99.90;;;;;;5113531;27;20516;-69
2020/12/01 01:28:12;;;;;;;35.63;22.60;;;1.50;99.90;;;;;;5113418;28;20524;-69
2020/12/01 01:30:40;;;;;;;38.10;24.53;;;1.50;99.90;;;;;;5112486;28;20500;-69
2020/12/01 01:33:07;;;;;;;38.50;25.77;;;1.50;99.90;;;;;;5113328;28;20430;-69
2020/12/01 01:35:34;;;;;;;40.10;24.40;;;1.50;99.90;;;;;;5113260;28;20532;-70
2020/12/01 01:38:01;;;;;;;40.60;25.40;;;1.50;99.90;;;;;;5113253;28;20441;-70
2020/12/01 01:40:29;;;;;;;38.37;23.47;;;1.50;99.90;;;;;;5112170;28;20461;-69
2020/12/01 01:42:56;;;;;;;32.73;22.60;;;1.50;99.90;;;;;;5113277;28;20563;-70
2020/12/01 01:45:40;;;;;;;43.73;23.70;;;1.50;99.90;;;;;;5113348;28;20528;-70
2020/12/01 01:48:21;;;;;;;36.57;23.53;;;1.60;99.90;;;;;;5113039;28;21035;-70
2020/12/01 01:50:56;;;;;;;41.80;25.10;;;1.60;99.90;;;;;;5112299;28;20516;-69
2020/12/01 01:53:22;;;;;;;44.00;25.00;;;1.60;99.90;;;;;;5112993;28;20512;-69
2020/12/01 01:55:53;;;;;;;37.67;23.40;;;1.60;99.90;;;;;;5113069;28;20524;-69
2020/12/01 01:58:23;;;;;;;38.20;22.40;;;1.60;99.90;;;;;;5112904;28;20980;-69
2020/12/01 02:00:56;;;;;;;42.57;23.83;;;1.60;99.90;;;;;;5112049;28;20545;-69
2020/12/01 02:03:34;;;;;;;39.77;23.37;;;1.60;99.90;;;;;;5112846;28;20483;-70
2020/12/01 02:06:02;;;;;;;36.47;22.73;;;1.60;99.90;;;;;;5112790;28;20528;-70
2020/12/01 02:08:29;;;;;;;40.50;25.10;;;1.60;99.90;;;;;;5112969;27;20469;-69
2020/12/01 02:10:56;;;;;;;44.40;24.03;;;1.60;99.90;;;;;;5111846;27;20548;-70
2020/12/01 02:13:35;;;;;;;45.77;25.90;;;1.50;99.90;;;;;;5112484;28;21011;-69
2020/12/01 02:16:01;;;;;;;41.40;25.37;;;1.50;99.90;;;;;;5112621;28;20433;-70
2020/12/01 02:18:30;;;;;;;34.30;23.93;;;1.50;99.90;;;;;;5112418;28;20483;-70
2020/12/01 02:20:57;;;;;;;40.00;25.83;;;1.50;99.90;;;;;;5111746;28;20461;-70
2020/12/01 02:23:24;;;;;;;42.27;25.80;;;1.60;99.90;;;;;;5112281;28;20565;-70
2020/12/01 02:25:51;;;;;;;40.30;25.13;;;1.60;99.90;;;;;;5112394;28;20528;-70
2020/12/01 02:28:18;;;;;;;39.90;24.40;;;1.50;99.90;;;;;;5112378;28;20525;-70
2020/12/01 02:30:44;;;;;;;41.10;25.60;;;1.50;99.90;;;;;;5111412;28;20536;-70
2020/12/01 02:33:11;;;;;;;40.73;24.30;;;1.60;99.90;;;;;;5112143;28;20517;-70
2020/12/01 02:35:37;;;;;;;41.50;25.90;;;1.50;99.90;;;;;;5112311;28;20524;-70
2020/12/01 02:38:03;;;;;;;50.87;24.37;;;1.60;99.90;;;;;;5112266;28;20469;-70
2020/12/01 02:40:30;;;;;;;40.73;24.53;;;1.60;99.90;;;;;;5111124;28;21290;-69
2020/12/01 02:42:56;;;;;;;42.97;25.97;;;1.60;99.90;;;;;;5111981;28;20569;-69
2020/12/01 02:45:24;;;;;;;37.40;24.93;;;1.50;99.90;;;;;;5111898;28;20520;-70
2020/12/01 02:47:50;;;;;;;42.67;25.23;;;1.50;99.90;;;;;;5112100;28;20520;-70
2020/12/01 02:50:16;;;;;;;44.07;24.97;;;1.40;99.90;;;;;;5110827;28;20457;-69
2020/12/01 02:52:43;;;;;;;41.30;24.70;;;1.40;99.90;;;;;;5111774;28;20938;-69
2020/12/01 02:55:09;;;;;;;39.33;24.10;;;1.40;99.90;;;;;;5111756;28;20528;-69
2020/12/01 02:57:36;;;;;;;41.43;24.20;;;1.50;99.90;;;;;;5111871;28;20465;-69
2020/12/01 03:00:04;;;;;;;41.30;24.57;;;1.50;99.90;;;;;;5110854;28;20525;-69
2020/12/01 03:02:31;;;;;;;44.07;26.00;;;1.50;99.90;;;;;;5111503;28;20509;-69
2020/12/01 03:04:57;;;;;;;42.53;26.00;;;1.50;99.90;;;;;;5111042;27;20520;-69
2020/12/01 03:07:23;;;;;;;44.77;25.97;;;1.50;99.90;;;;;;5110707;28;20517;-68
2020/12/01 03:09:50;;;;;;;41.80;24.23;;;1.50;99.90;;;;;;5111761;28;20539;-68
2020/12/01 03:12:16;;;;;;;46.17;24.13;;;1.50;99.90;;;;;;5110979;28;20960;-68
2020/12/01 03:14:43;;;;;;;41.13;25.00;;;1.60;99.90;;;;;;5111622;28;20524;-68
2020/12/01 03:17:09;;;;;;;37.97;23.50;;;1.60;99.90;;;;;;5111494;28;20445;-69
2020/12/01 03:19:36;;;;;;;39.77;23.03;;;1.60;99.90;;;;;;5111414;28;20524;-69
2020/12/01 03:22:03;;;;;;;43.80;24.90;;;1.70;99.90;;;;;;5110907;28;20505;-68
2020/12/01 03:24:29;;;;;;;42.80;23.80;;;1.60;99.90;;;;;;5111463;28;20521;-68
2020/12/01 03:26:55;;;;;;;40.20;24.23;;;1.70;99.90;;;;;;5111444;28;20516;-69
2020/12/01 03:29:22;;;;;;;41.93;23.87;;;1.70;99.90;;;;;;5111132;28;20524;-68
2020/12/01 03:31:48;;;;;;;43.00;23.30;;;1.70;99.90;;;;;;5110486;28;20457;-69
2020/12/01 03:34:14;;;;;;;38.63;22.07;;;1.70;99.90;;;;;;5111403;28;20512;-68
2020/12/01 03:36:42;;;;;;;38.53;23.47;;;1.80;99.90;;;;;;5111356;28;20473;-69
2020/12/01 03:39:08;;;;;;;39.97;22.07;;;1.80;99.90;;;;;;5111183;28;20866;-68
2020/12/01 03:41:34;;;;;;;40.10;23.30;;;1.80;99.90;;;;;;5110188;28;20585;-68
2020/12/01 03:44:01;;;;;;;40.97;24.03;;;1.70;99.90;;;;;;5110951;28;20520;-69
2020/12/01 03:46:27;;;;;;;45.37;22.00;;;1.70;99.90;;;;;;5111257;28;20536;-69
2020/12/01 03:48:53;;;;;;;39.17;22.60;;;1.70;99.90;;;;;;5111150;28;20528;-69
2020/12/01 03:51:20;;;;;;;36.93;22.70;;;1.70;99.90;;;;;;5110406;28;20898;-69
2020/12/01 03:53:47;;;;;;;43.17;23.23;;;1.80;99.90;;;;;;5111048;28;20541;-69
2020/12/01 03:56:13;;;;;;;41.77;23.70;;;1.80;99.90;;;;;;5110938;28;20524;-69
2020/12/01 03:58:40;;;;;;;37.57;23.20;;;1.80;99.90;;;;;;5110990;28;20981;-69
2020/12/01 04:01:06;;;;;;;35.73;21.70;;;1.80;99.90;;;;;;5110349;28;20493;-69
2020/12/01 04:03:32;;;;;;;38.70;21.60;;;1.90;99.90;;;;;;5115250;27;20509;-69
2020/12/01 04:05:59;;;;;;;37.43;23.17;;;1.90;99.90;;;;;;5115222;28;20465;-69
2020/12/01 04:08:25;;;;;;;41.93;22.30;;;1.90;99.90;;;;;;5115164;28;20512;-69
2020/12/01 04:10:52;;;;;;;43.37;24.93;;;2.00;99.90;;;;;;5114233;28;20535;-69
2020/12/01 04:13:19;;;;;;;41.67;22.20;;;2.00;99.90;;;;;;5115605;28;20491;-69
2020/12/01 04:15:45;;;;;;;36.63;21.33;;;2.00;99.90;;;;;;5115053;27;20551;-69
2020/12/01 04:18:11;;;;;;;38.17;23.33;;;2.00;99.90;;;;;;5115005;28;20529;-69
2020/12/01 04:20:38;;;;;;;34.77;22.40;;;2.00;99.90;;;;;;5114174;28;20465;-68
2020/12/01 04:23:04;;;;;;;38.20;21.30;;;2.00;99.90;;;;;;5114913;28;20567;-69
2020/12/01 04:25:31;;;;;;;38.93;22.30;;;2.10;99.90;;;;;;5114818;28;20529;-69
2020/12/01 04:27:58;;;;;;;43.70;23.40;;;2.10;99.90;;;;;;5115095;28;20516;-69
2020/12/01 04:30:25;;;;;;;37.87;22.90;;;2.10;99.90;;;;;;5114417;28;20535;-69
2020/12/01 04:32:53;;;;;;;38.03;22.83;;;2.00;99.90;;;;;;5115007;28;20524;-69
2020/12/01 04:35:20;;;;;;;35.40;21.20;;;2.10;99.90;;;;;;5114924;28;20488;-69
2020/12/01 04:37:47;;;;;;;37.17;21.63;;;2.10;99.90;;;;;;5114614;28;20465;-69
2020/12/01 04:40:19;;;;;;;38.40;22.60;;;2.10;99.90;;;;;;5113824;28;20533;-68
2020/12/01 04:42:58;;;;;;;38.40;18.57;;;2.10;99.90;;;;;;5114392;28;20920;-69
2020/12/01 04:45:27;;;;;;;38.93;21.90;;;2.10;99.90;;;;;;5115501;28;20568;-69
2020/12/01 04:47:57;;;;;;;31.83;19.90;;;2.00;99.90;;;;;;5114999;28;20488;-69
2020/12/01 04:50:31;;;;;;;34.90;21.40;;;2.00;99.90;;;;;;5113614;28;20544;-69
2020/12/01 04:53:34;;;;;;;39.10;21.23;;;2.10;99.90;;;;;;5114706;28;21004;-69
2020/12/01 04:56:24;;;;;;;33.87;21.30;;;2.10;99.90;;;;;;5114560;28;20998;-69
2020/12/01 04:59:03;;;;;;;46.67;21.90;;;2.10;99.90;;;;;;5114143;28;20531;-69
2020/12/01 05:02:08;;;;;;;36.57;22.93;;;2.00;99.90;;;;;;5113711;28;20492;-70
2020/12/01 05:04:43;;;;;;;32.20;20.53;;;2.10;99.90;;;;;;5114817;28;20445;-69
2020/12/01 05:07:20;;;;;;;39.40;21.07;;;2.00;99.90;;;;;;5114502;28;20441;-69
2020/12/01 05:09:51;;;;;;;40.30;22.97;;;2.10;99.90;;;;;;5114477;28;21092;-70
2020/12/01 05:12:22;;;;;;;37.87;21.30;;;2.10;99.90;;;;;;5113711;27;20540;-69
2020/12/01 05:14:55;;;;;;;33.77;19.83;;;2.10;99.90;;;;;;5113371;28;20438;-68
2020/12/01 05:17:52;;;;;;;38.93;21.93;;;2.20;99.90;;;;;;5113993;28;20878;-68
2020/12/01 05:20:19;;;;;;;37.17;20.73;;;2.20;99.90;;;;;;5113695;28;20531;-68
2020/12/01 05:22:50;;;;;;;37.93;21.07;;;2.20;99.90;;;;;;5114278;28;21067;-69
2020/12/01 05:25:21;;;;;;;37.93;21.47;;;2.10;99.90;;;;;;5114194;28;20520;-69
2020/12/01 05:27:47;;;;;;;37.70;22.03;;;2.10;99.90;;;;;;5114324;28;20979;-68
2020/12/01 05:30:19;;;;;;;43.10;22.43;;;2.00;99.90;;;;;;5113147;28;20469;-68
2020/12/01 05:32:54;;;;;;;38.53;20.40;;;2.00;99.90;;;;;;5113742;28;21179;-70
2020/12/01 05:35:24;;;;;;;36.17;20.40;;;2.00;99.90;;;;;;5112701;28;20890;-68
2020/12/01 05:38:02;;;;;;;38.73;21.57;;;2.00;99.90;;;;;;5113095;28;20533;-68
2020/12/01 05:40:31;;;;;;;38.80;22.03;;;2.00;99.90;;;;;;5112349;27;20482;-67
2020/12/01 05:42:58;;;;;;;35.80;21.80;;;2.00;99.90;;;;;;5113343;28;20572;-67
2020/12/01 05:45:34;;;;;;;45.37;23.47;;;2.00;99.90;;;;;;5113594;28;20524;-69
2020/12/01 05:48:24;;;;;;;32.67;20.43;;;2.00;99.90;;;;;;5113197;28;20473;-68
2020/12/01 05:51:03;;;;;;;40.17;21.53;;;2.00;99.90;;;;;;5112565;28;20460;-69
2020/12/01 05:53:29;;;;;;;36.93;22.10;;;1.90;99.90;;;;;;5113208;28;20469;-67
2020/12/01 05:56:05;;;;;;;37.00;22.07;;;1.90;99.90;;;;;;5113081;28;20866;-69
2020/12/01 05:58:41;;;;;;;33.70;20.37;;;2.00;99.90;;;;;;5112995;28;20437;-67
2020/12/01 06:01:08;;;;;;;37.53;22.20;;;2.00;99.90;;;;;;5112167;28;20491;-68
2020/12/01 06:03:51;;;;;;;42.93;23.13;;;2.00;99.90;;;;;;5112729;28;20526;-67
2020/12/01 06:06:18;;;;;;;40.90;24.63;;;2.10;99.90;;;;;;5112544;28;20528;-67
2020/12/01 06:08:52;;;;;;;46.90;22.93;;;2.10;99.90;;;;;;5112595;28;20494;-69
2020/12/01 06:11:36;;;;;;;39.10;21.70;;;2.10;99.90;;;;;;5111711;28;21030;-67
2020/12/01 06:14:12;;;;;;;36.97;21.50;;;2.10;99.90;;;;;;5109735;28;20465;-67
2020/12/01 06:16:45;;;;;;;35.30;22.40;;;2.10;99.90;;;;;;5109863;28;20520;-68
2020/12/01 06:19:24;;;;;;;34.70;20.63;;;2.10;99.90;;;;;;5110746;28;20452;-68
2020/12/01 06:22:34;;;;;;;39.00;19.90;;;2.10;99.90;;;;;;5112275;28;20465;-69
2020/12/01 06:25:43;;;;;;;35.07;22.20;;;2.10;99.90;;;;;;5111779;28;20948;-69
2020/12/01 06:28:52;;;;;;;34.00;21.40;;;2.10;99.90;;;;;;5112559;28;20517;-69
2020/12/01 06:31:47;;;;;;;34.70;21.50;;;2.00;99.90;;;;;;5111726;28;20548;-69
2020/12/01 06:34:44;;;;;;;39.80;22.67;;;2.00;99.90;;;;;;5112755;28;20485;-70
2020/12/01 06:37:25;;;;;;;38.93;21.07;;;2.00;99.90;;;;;;5111443;28;20932;-69
2020/12/01 06:40:18;;;;;;;36.13;21.90;;;2.00;99.90;;;;;;5112262;28;20519;-70
2020/12/01 06:42:47;;;;;;;40.73;22.90;;;2.00;99.90;;;;;;5109999;28;20485;-70
2020/12/01 06:45:23;;;;;;;41.20;23.93;;;2.00;99.90;;;;;;5112218;28;20537;-71
2020/12/01 06:47:51;;;;;;;42.33;22.50;;;2.00;99.90;;;;;;5112131;28;20461;-70
2020/12/01 06:50:21;;;;;;;61.70;34.85;;;2.00;99.90;;;;;;5110340;28;20521;-71
2020/12/01 06:52:58;;;;;;;61.27;30.00;;;1.90;99.90;;;;;;5108601;28;20275;-71
2020/12/01 06:55:58;;;;;;;40.33;24.60;;;2.00;99.90;;;;;;5110290;28;20875;-72
2020/12/01 06:58:34;;;;;;;40.87;22.53;;;2.00;99.90;;;;;;5109470;28;20465;-72
2020/12/01 07:01:25;;;;;;;37.63;21.90;;;2.00;99.90;;;;;;5107678;28;20448;-70
2020/12/01 07:04:17;;;;;;;38.70;23.37;;;2.20;99.90;;;;;;5103492;28;20551;-71
2020/12/01 07:06:47;;;;;;;37.90;23.10;;;2.20;99.90;;;;;;5108816;28;20959;-72
2020/12/01 07:09:16;;;;;;;43.40;24.10;;;2.30;99.90;;;;;;5110835;28;20526;-69
2020/12/01 07:12:23;;;;;;;34.40;22.20;;;2.20;99.90;;;;;;5110360;28;20532;-69
2020/12/01 07:14:57;;;;;;;35.70;20.00;;;2.20;99.90;;;;;;5111506;28;20457;-69
2020/12/01 07:17:46;;;;;;;38.23;21.23;;;2.20;99.90;;;;;;5111468;28;20476;-69
2020/12/01 07:20:35;;;;;;;36.13;21.03;;;2.10;99.90;;;;;;5110661;28;20502;-69
2020/12/01 07:23:13;;;;;;;43.30;22.93;;;2.10;99.90;;;;;;5111444;28;20572;-68
2020/12/01 07:25:45;;;;;;;40.37;22.63;;;2.20;99.90;;;;;;5111066;28;20928;-69
2020/12/01 07:28:20;;;;;;;37.60;22.10;;;2.20;99.90;;;;;;5110015;28;20524;-69
2020/12/01 07:30:52;;;;;;;38.23;22.07;;;2.30;99.90;;;;;;5109654;28;20565;-69
2020/12/01 07:33:20;;;;;;;31.87;21.43;;;2.20;99.90;;;;;;5111269;28;20504;-69
2020/12/01 07:35:49;;;;;;;38.60;21.23;;;2.20;99.90;;;;;;5111593;27;20520;-69
2020/12/01 07:38:28;;;;;;;45.77;23.33;;;2.30;99.90;;;;;;5110903;28;20521;-70
2020/12/01 07:40:57;;;;;;;38.87;21.37;;;2.20;99.90;;;;;;5110435;28;20560;-69
2020/12/01 07:43:24;;;;;;;41.70;22.90;;;2.20;99.90;;;;;;5111050;28;20512;-68
2020/12/01 07:45:59;;;;;;;39.50;23.03;;;2.30;99.90;;;;;;5111147;28;20473;-69
2020/12/01 07:48:26;;;;;;;34.50;22.53;;;2.30;99.90;;;;;;5112029;28;20524;-70
2020/12/01 07:51:03;;;;;;;41.23;22.77;;;2.40;99.90;;;;;;5110799;28;20565;-69
2020/12/01 07:53:33;;;;;;;39.23;20.97;;;2.40;99.90;;;;;;5111360;28;20453;-69
2020/12/01 07:56:04;;;;;;;35.57;21.50;;;2.40;99.90;;;;;;5111356;28;20518;-70
2020/12/01 07:58:31;;;;;;;41.20;24.77;;;2.40;99.90;;;;;;5111487;28;20512;-69
2020/12/01 08:01:01;;;;;;;37.57;22.20;;;2.40;99.90;;;;;;5110800;28;20512;-71
2020/12/01 08:03:30;;;;;;;37.30;22.53;;;2.30;99.90;;;;;;5111240;28;20596;-71
2020/12/01 08:06:02;;;;;;;43.27;23.17;;;2.40;99.90;;;;;;5111236;28;20476;-71
2020/12/01 08:08:33;;;;;;;38.47;25.07;;;2.40;99.90;;;;;;5110999;28;20486;-71
2020/12/01 08:11:03;;;;;;;41.97;22.83;;;2.50;99.90;;;;;;5110620;28;20454;-70
2020/12/01 08:13:32;;;;;;;42.70;23.50;;;2.50;99.90;;;;;;5111090;28;20434;-70
2020/12/01 08:16:01;;;;;;;37.03;21.63;;;2.60;99.90;;;;;;5111035;28;20488;-70
2020/12/01 08:18:28;;;;;;;40.10;22.27;;;2.50;99.90;;;;;;5110907;28;20469;-70
2020/12/01 08:20:56;;;;;;;37.67;22.40;;;2.60;99.90;;;;;;5110120;28;20508;-71
2020/12/01 08:23:26;;;;;;;33.50;21.77;;;2.60;99.90;;;;;;5110837;28;20572;-70
2020/12/01 08:26:00;;;;;;;33.30;21.30;;;2.60;99.90;;;;;;5111157;28;20520;-69
2020/12/01 08:28:31;;;;;;;40.57;23.67;;;2.60;99.90;;;;;;5110980;28;20523;-70
2020/12/01 08:31:09;;;;;;;33.60;20.47;;;2.50;99.90;;;;;;5110180;28;20523;-70
2020/12/01 08:33:46;;;;;;;39.70;22.00;;;2.50;99.90;;;;;;5110612;28;20531;-70
2020/12/01 08:36:25;;;;;;;36.10;22.37;;;2.60;99.90;;;;;;5110878;28;20497;-70
2020/12/01 08:39:23;;;;;;;35.20;21.00;;;2.60;99.90;;;;;;5106805;28;20449;-70
2020/12/01 08:41:56;;;;;;;38.90;22.00;;;2.60;99.90;;;;;;5108537;28;20542;-70
2020/12/01 08:44:32;;;;;;;50.80;30.13;;;2.70;99.90;;;;;;5105408;28;20521;-68
2020/12/01 08:47:02;;;;;;;50.83;30.60;;;2.60;99.90;;;;;;5110112;28;21183;-70
2020/12/01 08:49:41;;;;;;;60.60;32.13;;;2.50;99.90;;;;;;5112755;28;20437;-70
2020/12/01 08:52:26;;;;;;;53.90;30.93;;;2.60;99.90;;;;;;5113470;28;20464;-70
2020/12/01 08:54:55;;;;;;;51.13;29.30;;;2.50;99.90;;;;;;5114346;28;20440;-70
2020/12/01 08:57:27;;;;;;;44.60;27.87;;;2.50;99.90;;;;;;5114320;28;20902;-71
2020/12/01 09:00:07;;;;;;;46.50;27.53;;;2.50;99.90;;;;;;5114098;28;20524;-70
2020/12/01 09:02:39;;;;;;;46.73;26.93;;;2.50;99.90;;;;;;5113883;28;20538;-71
2020/12/01 09:05:07;;;;;;;48.07;25.20;;;2.60;99.90;;;;;;5114330;28;20461;-71
2020/12/01 09:07:37;;;;;;;43.90;27.47;;;2.60;99.90;;;;;;5114127;28;21027;-70
2020/12/01 09:10:14;;;;;;;44.77;27.27;;;2.60;99.90;;;;;;5113379;28;20483;-71
2020/12/01 09:12:44;;;;;;;39.33;25.00;;;2.70;99.90;;;;;;5114112;28;20433;-71
2020/12/01 09:15:30;;;;;;;47.57;26.70;;;2.70;99.90;;;;;;5113597;28;20827;-71
2020/12/01 09:18:19;;;;;;;44.40;25.87;;;2.80;99.90;;;;;;5107246;28;20433;-71
2020/12/01 09:21:50;;;;;;;42.50;26.90;;;2.80;99.90;;;;;;5105133;28;20449;-70
2020/12/01 09:24:00;;;;;;;40.67;23.70;;;2.80;99.90;;;;;;5113439;28;20868;-71
2020/12/01 09:26:27;;;;;;;35.60;22.93;;;2.70;99.90;;;;;;5108813;28;20442;-70
2020/12/01 09:28:54;;;;;;;43.27;26.13;;;2.70;99.90;;;;;;5105867;28;21207;-70
2020/12/01 09:31:22;;;;;;;39.57;24.43;;;2.70;99.90;;;;;;5108569;28;20537;-70
2020/12/01 09:33:49;;;;;;;43.57;25.37;;;2.60;99.90;;;;;;5111280;28;20529;-71
2020/12/01 09:36:17;;;;;;;41.73;24.40;;;2.70;99.90;;;;;;5112186;28;20512;-69
2020/12/01 09:38:44;;;;;;;46.43;25.60;;;2.70;99.90;;;;;;5104046;28;20513;-70
2020/12/01 09:41:15;;;;;;;42.27;25.50;;;2.70;99.90;;;;;;5111574;28;20549;-70
2020/12/01 09:43:45;;;;;;;46.87;25.30;;;2.70;99.90;;;;;;5111773;28;20580;-70
2020/12/01 09:46:13;;;;;;;37.90;22.73;;;2.80;99.90;;;;;;5112548;28;20437;-70
2020/12/01 09:48:41;;;;;;;40.23;23.43;;;2.90;99.90;;;;;;5112273;28;20429;-71
2020/12/01 09:51:10;;;;;;;46.33;23.30;;;2.90;99.90;;;;;;5110956;27;20468;-71
2020/12/01 09:53:44;;;;;;;40.70;24.07;;;2.90;99.90;;;;;;5112012;28;20532;-70
2020/12/01 09:56:20;;;;;;;39.83;23.70;;;2.90;99.90;;;;;;5111930;28;20433;-71
2020/12/01 09:59:14;;;;;;;39.77;23.60;;;2.90;99.90;;;;;;5111983;28;20440;-70
2020/12/01 10:10:08;;;;;;;40.33;22.27;;;3.10;99.90;;;;;;5104624;28;20429;-70
2020/12/01 10:12:53;;;;;;;36.67;24.07;;;3.10;99.90;;;;;;5111540;28;20438;-70
2020/12/01 10:18:31;;;;;;;39.10;23.00;;;3.40;99.90;;;;;;5111533;28;20923;-70
2020/12/01 10:35:09;;;;;;;37.90;22.87;;;3.50;99.90;;;;;;5088952;28;20778;-70
2020/12/01 10:37:36;;;;;;;36.63;23.07;;;3.50;99.90;;;;;;5089397;28;20430;-71
2020/12/01 10:40:03;;;;;;;44.00;24.43;;;3.40;99.90;;;;;;5088589;28;20445;-71
2020/12/01 10:42:30;;;;;;;45.40;27.63;;;3.40;99.90;;;;;;5088562;28;20473;-71
2020/12/01 10:44:57;;;;;;;53.47;31.40;;;3.50;99.90;;;;;;5088784;28;20452;-72
2020/12/01 10:47:24;;;;;;;50.03;29.03;;;3.40;99.90;;;;;;5088465;28;20519;-71
2020/12/01 10:49:51;;;;;;;48.07;28.23;;;3.40;99.90;;;;;;5088611;28;20434;-71
2020/12/01 10:52:17;;;;;;;42.30;26.07;;;3.40;99.90;;;;;;5088086;28;20881;-72
2020/12/01 10:54:44;;;;;;;37.87;25.33;;;3.30;99.90;;;;;;5087992;28;20496;-72
2020/12/01 10:57:10;;;;;;;44.63;25.77;;;3.30;99.90;;;;;;5087696;28;20496;-71
2020/12/01 10:59:37;;;;;;;51.20;27.73;;;3.40;99.90;;;;;;5088207;28;20491;-72
2020/12/01 11:02:04;;;;;;;42.37;26.10;;;3.40;99.90;;;;;;5087740;28;20447;-72
2020/12/01 11:04:31;;;;;;;45.90;25.87;;;3.30;99.90;;;;;;5088809;28;20423;-71
2020/12/01 11:06:58;;;;;;;36.90;24.77;;;3.40;99.90;;;;;;5088222;28;20427;-72
2020/12/01 11:09:24;;;;;;;36.70;24.67;;;3.40;99.90;;;;;;5087948;28;21048;-71
2020/12/01 11:11:51;;;;;;;36.60;23.83;;;3.50;99.90;;;;;;5087469;28;20454;-72
2020/12/01 11:14:17;;;;;;;35.50;24.23;;;3.50;99.90;;;;;;5088635;28;20480;-71
2020/12/01 11:16:44;;;;;;;35.00;22.90;;;3.70;99.90;;;;;;5088583;28;20446;-72
2020/12/01 11:19:11;;;;;;;30.67;20.70;;;3.70;99.90;;;;;;5088988;28;20446;-70
2020/12/01 11:21:38;;;;;;;32.80;20.83;;;3.70;99.90;;;;;;5088722;28;20453;-72
2020/12/01 11:24:06;;;;;;;30.00;19.80;;;3.70;99.90;;;;;;5088943;28;20457;-72
2020/12/01 11:26:32;;;;;;;26.27;18.83;;;3.70;99.90;;;;;;5089112;28;20434;-72
2020/12/01 11:28:59;;;;;;;34.53;21.03;;;3.70;99.90;;;;;;5089331;28;20886;-72
2020/12/01 11:31:26;;;;;;;33.43;20.67;;;3.60;99.90;;;;;;5089381;28;20461;-71
2020/12/01 11:34:01;;;;;;;29.77;19.80;;;3.60;99.90;;;;;;5081865;28;20453;-73
2020/12/01 11:36:29;;;;;;;30.50;20.87;;;3.60;99.90;;;;;;5085127;28;20431;-72
2020/12/01 11:38:56;;;;;;;27.57;20.10;;;3.70;99.90;;;;;;5081324;28;20428;-72
2020/12/01 11:41:23;;;;;;;29.80;20.50;;;3.70;99.90;;;;;;5071502;28;20494;-70
2020/12/01 11:43:50;;;;;;;26.83;17.90;;;3.80;99.90;;;;;;5073579;28;20440;-71
2020/12/01 11:46:16;;;;;;;26.80;18.97;;;3.90;99.90;;;;;;5066204;28;20456;-72
2020/12/01 11:48:43;;;;;;;25.20;19.63;;;3.80;99.90;;;;;;5069563;28;20474;-71
2020/12/01 11:51:11;;;;;;;31.50;20.73;;;3.80;99.90;;;;;;5063378;28;20459;-71
2020/12/01 11:53:38;;;;;;;26.33;17.97;;;3.70;99.90;;;;;;5071346;28;21323;-71
2020/12/01 11:56:05;;;;;;;25.97;18.40;;;3.70;99.90;;;;;;5070464;28;20935;-72
2020/12/01 11:58:32;;;;;;;25.57;19.07;;;3.70;99.90;;;;;;5075708;28;20439;-71
2020/12/01 12:00:58;;;;;;;28.73;18.30;;;3.70;99.90;;;;;;5076238;28;20488;-72
2020/12/01 12:03:25;;;;;;;24.50;17.97;;;3.70;99.90;;;;;;5077121;28;20424;-71
2020/12/01 12:05:51;;;;;;;25.93;17.40;;;3.80;99.90;;;;;;5076622;28;20443;-72
2020/12/01 12:08:18;;;;;;;33.40;18.43;;;3.80;99.90;;;;;;5076002;28;20462;-71
2020/12/01 12:10:45;;;;;;;25.13;17.20;;;3.80;99.90;;;;;;5070530;28;20439;-72
2020/12/01 12:13:12;;;;;;;24.07;16.90;;;3.80;99.90;;;;;;5067866;28;20465;-72
2020/12/01 12:15:38;;;;;;;25.77;18.10;;;3.80;99.90;;;;;;5072423;28;20431;-71
2020/12/01 12:18:05;;;;;;;26.47;17.27;;;3.70;99.90;;;;;;5065189;28;20855;-71
2020/12/01 12:20:32;;;;;;;27.50;18.00;;;3.60;99.90;;;;;;5069095;28;20444;-72
2020/12/01 12:22:58;;;;;;;28.47;19.13;;;3.50;99.90;;;;;;5069805;28;20455;-72
2020/12/01 12:25:25;;;;;;;23.07;17.37;;;3.50;99.90;;;;;;5066263;28;20429;-71
2020/12/01 12:27:52;;;;;;;26.33;17.67;;;3.50;99.90;;;;;;5073528;28;20475;-71
2020/12/01 12:30:19;;;;;;;30.60;18.47;;;3.50;99.90;;;;;;5073933;28;20435;-71
2020/12/01 12:32:45;;;;;;;24.33;17.00;;;3.50;99.90;;;;;;5073648;28;20459;-71
2020/12/01 12:35:12;;;;;;;26.03;17.47;;;3.60;99.90;;;;;;5074433;28;20755;-72
2020/12/01 12:37:39;;;;;;;24.53;16.60;;;3.70;99.90;;;;;;5074562;28;20435;-71
2020/12/01 12:40:06;;;;;;;25.10;16.50;;;3.70;99.90;;;;;;5074297;28;20493;-71
2020/12/01 12:42:33;;;;;;;26.37;17.37;;;3.90;99.90;;;;;;5074328;28;20955;-70
2020/12/01 12:45:01;;;;;;;25.63;17.27;;;4.00;99.90;;;;;;5074052;28;20435;-71
2020/12/01 12:47:28;;;;;;;24.60;17.07;;;4.00;99.90;;;;;;5073354;28;20459;-71
2020/12/01 12:49:54;;;;;;;21.53;16.60;;;3.90;99.90;;;;;;5073200;28;20435;-72
2020/12/01 12:52:21;;;;;;;23.00;17.33;;;4.00;99.90;;;;;;5072391;28;20883;-72
2020/12/01 12:54:47;;;;;;;22.30;17.60;;;4.10;99.90;;;;;;5073095;28;20429;-71
2020/12/01 12:57:14;;;;;;;22.03;15.83;;;4.20;99.90;;;;;;5058437;28;20432;-72
2020/12/01 12:59:41;;;;;;;22.40;16.23;;;4.30;99.90;;;;;;5052847;28;20432;-72
2020/12/01 13:02:08;;;;;;;22.90;15.93;;;4.40;99.90;;;;;;5052430;28;20464;-72
2020/12/01 13:04:35;;;;;;;24.53;16.90;;;4.40;99.90;;;;;;5052818;28;20428;-72
2020/12/01 13:07:01;;;;;;;24.77;16.60;;;4.50;99.90;;;;;;5052632;28;20428;-73
2020/12/01 13:09:28;;;;;;;20.77;15.40;;;4.40;99.90;;;;;;5052610;28;20499;-70
2020/12/01 13:11:54;;;;;;;26.73;17.40;;;4.20;99.90;;;;;;5052397;28;20452;-72
2020/12/01 13:14:24;;;;;;;21.47;14.87;;;4.00;99.90;;;;;;5052809;28;20456;-71
2020/12/01 13:16:51;;;;;;;25.33;16.00;;;4.00;99.90;;;;;;5052826;28;20523;-72
2020/12/01 13:19:19;;;;;;;25.07;16.07;;;4.00;99.90;;;;;;5052946;28;20440;-72